This is the latest recevied weather packets stored in our database for station/object VE4JMP. If no packets are shown the sender has not sent any weather packets the latest 10 day(s).
| Time | Temp. | Humidity | Pressure | Rain* | Wind** | Luminosity | Snow |
|---|---|---|---|---|---|---|---|
| 1777537220 | -2.78° C | 86% | 1022.6 hPa | 0 mm | - | - | - |
| 1777536624 | -2.78° C | 86% | 1022.7 hPa | 0 mm | - | - | - |
| 1777533032 | -4.44° C | 90% | 1022.4 hPa | 0 mm | - | - | - |
| 1777530018 | -6.67° C | 89% | 1022.4 hPa | 0 mm | - | - | - |
| 1777528846 | -6.11° C | 91% | 1022.5 hPa | 0 mm | - | - | - |
| 1777522816 | -5.56° C | 88% | 1022.6 hPa | 0 mm | - | - | - |
| 1777521022 | -5° C | 88% | 1022.8 hPa | 0 mm | - | - | - |
| 1777518615 | -3.89° C | 81% | 1022.6 hPa | 0 mm | - | - | - |
| 1777510216 | 2.78° C | 66% | 1021.8 hPa | 0 mm | - | - | - |
| 1777509024 | 3.89° C | 64% | 1021.9 hPa | 0 mm | - | - | - |
| 1777508429 | 3.89° C | 64% | 1021.8 hPa | 0 mm | - | - | - |
| 1777506623 | 4.44° C | 59% | 1021.6 hPa | 0 mm | - | - | - |
| 1777504819 | 5° C | 56% | 1021.6 hPa | 0 mm | - | - | - |
| 1777498820 | 4.44° C | 57% | 1021.6 hPa | 0 mm | - | - | - |
| 1777495215 | 5° C | 53% | 1021.6 hPa | 0 mm | - | - | - |
| 1777490452 | 5° C | 53% | 1021.8 hPa | 0 mm | - | - | - |
| 1777487418 | 4.44° C | 53% | 1022.1 hPa | 0 mm | - | - | - |
| 1777485037 | 4.44° C | 54% | 1022.2 hPa | 0 mm | - | - | - |
| 1777483826 | 3.89° C | 55% | 1022.3 hPa | 0 mm | - | - | - |
| 1777483250 | 3.89° C | 55% | 1022.4 hPa | 0 mm | - | - | - |
| 1777480829 | 3.33° C | 58% | 1022.5 hPa | 0 mm | - | - | - |
| 1777479024 | 2.78° C | 62% | 1022.5 hPa | 0 mm | - | - | - |
| 1777470017 | 0.56° C | 72% | 1022.3 hPa | 0 mm | - | - | - |
| 1777467616 | 0.56° C | 70% | 1022 hPa | 0 mm | - | - | - |
| 1777467020 | 0.56° C | 70% | 1021.9 hPa | 0 mm | - | - | - |
* Rain latest hour (hover to see other rain measurements)
** Current wind speed in m/s (hover to see current wind gust speed)